Terminal Aerodrome Forecast
Issued by NWS Sioux Falls, SD

Home | Current Version | Previous Version | Text Only | Print | Product List | Glossary On
Versions: 1 2 3 4 5 6 7 8 9 10 11 12 13 14 15 16 17 18 19
046
FTUS43 KFSD 181128
TAFHON
TAF
KHON 181128Z 1812/1912 16016G29KT P6SM BKN200
     FM181500 19012G22KT P6SM BKN200
     FM181600 23009KT P6SM BKN200
     FM182000 34016G23KT P6SM BKN025
     FM182100 35016G25KT P6SM BKN015
     FM190600 36017G27KT 3SM -SN OVC015=

USA.gov is the U.S. government's official web portal to all federal, state and local government web resources and services.